Time;durP1;ratioP1;P1;durP2;ratioP2;P2;SDS_P1;SDS_P2;PMS_P1;PMS_P2;Temp;Humidity;BMP_temperature;BMP_pressure;BME280_temperature;BME280_humidity;BME280_pressure;Samples;Min_cycle;Max_cycle;Signal;HPM_P1;HPM_P2
2022/06/23 00:01:48;;;;;;;16.43;5.20;;;19.30;99.90;;;;;;5005381;28;20443;-77
2022/06/23 00:04:19;;;;;;;22.40;5.07;;;19.30;99.90;;;;;;4960952;28;20583;-77
2022/06/23 00:06:53;;;;;;;13.47;5.07;;;19.30;99.90;;;;;;4988529;28;20424;-77
2022/06/23 00:09:36;;;;;;;12.73;4.53;;;19.20;99.90;;;;;;4990675;28;20431;-77
2022/06/23 00:12:24;;;;;;;9.77;4.67;;;19.20;99.90;;;;;;4990063;28;20430;-77
2022/06/23 00:15:10;;;;;;;16.50;5.80;;;19.20;99.90;;;;;;4989929;28;20482;-77
2022/06/23 00:17:42;;;;;;;13.30;5.00;;;19.10;99.90;;;;;;4989870;28;20524;-77
2022/06/23 00:20:11;;;;;;;10.93;4.90;;;19.10;99.90;;;;;;4988022;28;20436;-77
2022/06/23 00:22:40;;;;;;;19.23;4.83;;;19.00;99.90;;;;;;4987762;28;20451;-77
2022/06/23 00:25:07;;;;;;;19.07;5.90;;;18.90;99.90;;;;;;4988946;28;21030;-77
2022/06/23 00:27:37;;;;;;;19.43;5.97;;;18.90;99.90;;;;;;4989150;28;20500;-76
2022/06/23 00:30:17;;;;;;;13.60;5.03;;;18.90;99.90;;;;;;4988948;28;20424;-76
2022/06/23 00:32:43;;;;;;;15.27;6.20;;;18.80;99.90;;;;;;4989235;28;20419;-76
2022/06/23 00:35:14;;;;;;;11.43;5.23;;;18.70;99.90;;;;;;4972845;28;20507;-77
2022/06/23 00:37:47;;;;;;;16.93;6.40;;;18.70;99.90;;;;;;4991062;28;20185;-77
2022/06/23 00:40:14;;;;;;;13.80;5.43;;;18.70;99.90;;;;;;5007788;28;20494;-77
2022/06/23 00:42:49;;;;;;;20.20;5.57;;;18.70;99.90;;;;;;4991965;28;20428;-77
2022/06/23 00:45:42;;;;;;;13.03;5.07;;;18.60;99.90;;;;;;4997601;28;20435;-77
2022/06/23 00:48:29;;;;;;;17.17;6.73;;;18.60;99.90;;;;;;4989272;28;20460;-77
2022/06/23 00:51:09;;;;;;;13.30;5.77;;;18.50;99.90;;;;;;4993250;28;20404;-77
2022/06/23 00:53:48;;;;;;;14.70;5.57;;;18.50;99.90;;;;;;5007253;28;20486;-76
2022/06/23 00:56:28;;;;;;;12.53;5.13;;;18.40;99.90;;;;;;5007197;28;20517;-76
2022/06/23 00:58:57;;;;;;;14.77;6.20;;;18.30;99.90;;;;;;4992310;28;20423;-76
2022/06/23 01:01:46;;;;;;;17.00;6.90;;;18.20;99.90;;;;;;4993168;28;20414;-77
2022/06/23 01:04:52;;;;;;;14.97;6.13;;;18.10;99.90;;;;;;5007974;28;20479;-76
2022/06/23 01:07:36;;;;;;;16.43;6.27;;;18.10;99.90;;;;;;4992200;28;20764;-76
2022/06/23 01:10:27;;;;;;;21.27;5.83;;;18.10;99.90;;;;;;4990796;28;20433;-76
2022/06/23 01:13:03;;;;;;;16.83;5.80;;;18.10;99.90;;;;;;4987653;28;20434;-75
2022/06/23 01:15:33;;;;;;;13.47;5.87;;;18.10;99.90;;;;;;4992294;28;20468;-76
2022/06/23 01:18:10;;;;;;;23.97;6.60;;;18.00;99.90;;;;;;4992690;28;20420;-76
2022/06/23 01:20:49;;;;;;;18.17;5.43;;;17.90;99.90;;;;;;4992594;28;20475;-76
2022/06/23 01:23:28;;;;;;;18.47;5.80;;;17.90;99.90;;;;;;4991030;28;20438;-76
2022/06/23 01:26:30;;;;;;;14.67;6.33;;;17.90;99.90;;;;;;4992606;28;20423;-76
2022/06/23 01:29:07;;;;;;;16.50;6.13;;;17.90;99.90;;;;;;4990519;28;20515;-76
2022/06/23 01:31:46;;;;;;;23.83;5.83;;;17.80;99.90;;;;;;4992214;28;20420;-76
2022/06/23 01:34:21;;;;;;;16.47;6.17;;;17.80;99.90;;;;;;4991734;28;20451;-76
2022/06/23 01:37:01;;;;;;;16.10;6.03;;;17.70;99.90;;;;;;4991937;28;20470;-75
2022/06/23 01:39:42;;;;;;;15.90;5.93;;;17.80;99.90;;;;;;4990539;28;20493;-76
2022/06/23 01:42:35;;;;;;;16.97;5.93;;;17.70;99.90;;;;;;4991944;28;20832;-76
2022/06/23 01:45:10;;;;;;;17.73;6.17;;;17.80;99.90;;;;;;4992670;28;20474;-76
2022/06/23 01:47:47;;;;;;;15.33;6.00;;;17.80;99.90;;;;;;4993048;28;20424;-77
2022/06/23 01:50:12;;;;;;;12.80;5.27;;;17.80;99.90;;;;;;4994325;28;20985;-78
2022/06/23 01:52:40;;;;;;;12.57;6.10;;;17.70;99.90;;;;;;4993663;28;20522;-77
2022/06/23 01:55:19;;;;;;;18.33;6.93;;;17.70;99.90;;;;;;4993648;28;20219;-78
2022/06/23 01:57:49;;;;;;;20.13;6.63;;;17.50;99.90;;;;;;4991928;28;20432;-77
2022/06/23 02:00:21;;;;;;;21.00;7.87;;;17.40;99.90;;;;;;4991153;28;20474;-77
2022/06/23 02:03:08;;;;;;;20.37;6.67;;;17.40;99.90;;;;;;5007692;28;20431;-78
2022/06/23 02:05:45;;;;;;;28.53;7.40;;;17.50;99.90;;;;;;4994540;28;20432;-78
2022/06/23 02:08:35;;;;;;;18.83;6.50;;;17.50;99.90;;;;;;4992965;28;20429;-78
2022/06/23 02:11:01;;;;;;;15.97;6.47;;;17.60;99.90;;;;;;4996887;28;20415;-78
2022/06/23 02:13:34;;;;;;;13.10;5.57;;;17.50;99.90;;;;;;4993916;28;20466;-77
2022/06/23 02:16:18;;;;;;;16.40;5.00;;;17.60;99.90;;;;;;4991182;28;20607;-77
2022/06/23 02:18:52;;;;;;;18.13;5.83;;;17.60;99.90;;;;;;4991135;28;20417;-77
2022/06/23 02:21:31;;;;;;;13.33;6.30;;;17.50;99.90;;;;;;4991364;28;20785;-77
2022/06/23 02:24:14;;;;;;;12.60;5.73;;;17.40;99.90;;;;;;4991060;28;21103;-77
2022/06/23 02:27:06;;;;;;;13.93;6.07;;;17.40;99.90;;;;;;4989623;28;20471;-76
2022/06/23 02:29:48;;;;;;;22.33;6.70;;;17.40;99.90;;;;;;5014053;28;20459;-78
2022/06/23 02:32:19;;;;;;;18.80;5.87;;;17.50;99.90;;;;;;5000179;28;20530;-78
2022/06/23 02:34:51;;;;;;;14.93;5.00;;;17.40;99.90;;;;;;4996094;28;20508;-78
2022/06/23 02:37:48;;;;;;;16.30;5.80;;;17.40;99.90;;;;;;4996068;28;20872;-77
2022/06/23 02:40:22;;;;;;;23.80;6.13;;;17.30;99.90;;;;;;4975067;28;20574;-77
2022/06/23 02:43:01;;;;;;;13.77;6.30;;;17.20;99.90;;;;;;4994547;28;20423;-77
2022/06/23 02:45:45;;;;;;;17.13;6.80;;;17.00;99.90;;;;;;4994283;28;20490;-78
2022/06/23 02:48:23;;;;;;;22.53;7.17;;;16.90;99.90;;;;;;4995441;28;20536;-78
2022/06/23 02:51:24;;;;;;;15.90;6.53;;;16.80;99.90;;;;;;4997188;28;20529;-77
2022/06/23 02:54:09;;;;;;;17.87;6.43;;;16.90;99.90;;;;;;4981606;28;20516;-77
2022/06/23 02:57:04;;;;;;;24.27;6.90;;;17.00;99.90;;;;;;4991000;28;20415;-75
2022/06/23 02:59:40;;;;;;;19.47;6.83;;;17.20;99.90;;;;;;4990054;28;20410;-75
2022/06/23 03:02:25;;;;;;;14.67;7.07;;;17.30;99.90;;;;;;5004938;28;20542;-76
2022/06/23 03:04:57;;;;;;;19.93;7.10;;;17.50;99.90;;;;;;4990285;28;20437;-78
2022/06/23 03:07:48;;;;;;;22.37;6.73;;;17.50;99.90;;;;;;4991725;28;20436;-77
2022/06/23 03:10:35;;;;;;;19.67;6.43;;;17.70;99.90;;;;;;4990385;28;20502;-77
2022/06/23 03:13:20;;;;;;;15.93;7.20;;;17.70;99.90;;;;;;4990874;28;20846;-77
2022/06/23 03:15:57;;;;;;;23.77;7.43;;;17.80;99.90;;;;;;4989910;28;20513;-76
2022/06/23 03:18:38;;;;;;;16.43;6.40;;;17.70;99.90;;;;;;4990050;28;20418;-76
2022/06/23 03:21:12;;;;;;;20.97;6.30;;;17.70;99.90;;;;;;4989674;28;20928;-76
2022/06/23 03:23:55;;;;;;;24.20;5.93;;;17.70;99.90;;;;;;5004323;28;20447;-76
2022/06/23 03:27:08;;;;;;;15.77;7.33;;;17.70;99.90;;;;;;4989448;28;20427;-76
2022/06/23 03:30:03;;;;;;;15.40;5.70;;;17.80;99.90;;;;;;4989198;28;20430;-75
2022/06/23 03:32:40;;;;;;;18.63;5.93;;;17.90;99.90;;;;;;5004071;28;20809;-76
2022/06/23 03:35:17;;;;;;;19.73;6.20;;;18.00;99.90;;;;;;4989087;28;20472;-76
2022/06/23 03:38:19;;;;;;;16.63;5.87;;;17.90;99.90;;;;;;4987656;28;20476;-76
2022/06/23 03:43:51;;;;;;;17.00;5.03;;;17.90;99.90;;;;;;4989474;28;20487;-75
2022/06/23 03:46:49;;;;;;;16.47;6.57;;;18.00;99.90;;;;;;4989213;28;20407;-75
2022/06/23 03:49:53;;;;;;;15.63;6.53;;;17.90;99.90;;;;;;4976274;28;20490;-76
2022/06/23 03:52:21;;;;;;;18.93;6.90;;;17.80;99.90;;;;;;4986352;28;20817;-74
2022/06/23 03:55:23;;;;;;;14.30;6.13;;;17.80;99.90;;;;;;4988895;28;20532;-74
2022/06/23 03:57:55;;;;;;;9.83;5.07;;;17.70;99.90;;;;;;4986282;28;20435;-74
2022/06/23 04:00:22;;;;;;;17.03;6.17;;;17.90;99.90;;;;;;4989114;28;20508;-75
2022/06/23 04:03:20;;;;;;;11.53;5.63;;;17.90;99.90;;;;;;4987508;28;20428;-75
2022/06/23 04:05:54;;;;;;;13.23;5.90;;;17.80;99.90;;;;;;4976008;28;20454;-74
2022/06/23 04:08:24;;;;;;;13.57;6.43;;;17.90;99.90;;;;;;4989070;28;20532;-75
2022/06/23 04:10:53;;;;;;;12.10;5.97;;;17.90;99.90;;;;;;4987035;28;21018;-74
2022/06/23 04:13:34;;;;;;;18.33;6.47;;;17.80;99.90;;;;;;4986234;28;20476;-74
2022/06/23 04:16:08;;;;;;;16.23;7.23;;;17.90;99.90;;;;;;4987619;28;20531;-74
2022/06/23 04:18:39;;;;;;;10.70;5.30;;;18.00;99.90;;;;;;4987683;28;20435;-75
2022/06/23 04:21:12;;;;;;;20.17;5.77;;;18.00;99.90;;;;;;4987641;28;20901;-74
2022/06/23 04:23:48;;;;;;;13.77;6.17;;;18.10;99.90;;;;;;4990035;28;21315;-75
2022/06/23 04:26:17;;;;;;;15.83;6.17;;;18.10;99.90;;;;;;4991534;28;21219;-74
2022/06/23 04:28:54;;;;;;;11.20;6.57;;;18.00;99.90;;;;;;4991312;28;20428;-75
2022/06/23 04:31:27;;;;;;;14.47;7.03;;;18.00;99.90;;;;;;4991509;28;20446;-74
2022/06/23 04:33:53;;;;;;;13.40;6.40;;;18.00;99.90;;;;;;4991264;28;20446;-74
2022/06/23 04:36:33;;;;;;;8.37;4.47;;;17.90;99.90;;;;;;4989908;28;20476;-75
2022/06/23 04:39:01;;;;;;;11.87;6.40;;;17.80;99.90;;;;;;4991368;28;21213;-75
2022/06/23 04:41:30;;;;;;;10.97;5.60;;;17.80;99.90;;;;;;4991230;28;20420;-75
2022/06/23 04:44:01;;;;;;;18.33;6.70;;;17.80;99.90;;;;;;4991325;28;20524;-75
2022/06/23 04:46:41;;;;;;;16.60;5.60;;;17.80;99.90;;;;;;4991705;28;20421;-75
2022/06/23 04:49:28;;;;;;;20.50;5.13;;;17.80;99.90;;;;;;4991866;28;20424;-75
2022/06/23 04:52:12;;;;;;;17.87;5.83;;;17.70;99.90;;;;;;4991839;28;20491;-74
2022/06/23 04:54:50;;;;;;;17.57;5.60;;;17.80;99.90;;;;;;4991318;28;20563;-75
2022/06/23 04:57:20;;;;;;;9.83;4.80;;;17.80;99.90;;;;;;4989879;28;20436;-75
2022/06/23 04:59:53;;;;;;;8.20;5.10;;;17.90;99.90;;;;;;4991607;28;20521;-75
2022/06/23 05:02:31;;;;;;;15.00;5.17;;;18.00;99.90;;;;;;4991426;28;20514;-75
2022/06/23 05:05:13;;;;;;;9.47;4.60;;;18.10;99.90;;;;;;4991794;28;20959;-74
2022/06/23 05:07:48;;;;;;;7.57;4.60;;;18.20;99.90;;;;;;4992481;28;20832;-75
2022/06/23 05:10:46;;;;;;;10.70;4.40;;;18.40;99.90;;;;;;4989919;28;20440;-74
2022/06/23 05:13:22;;;;;;;8.60;4.03;;;18.50;99.90;;;;;;4991292;28;20459;-74
2022/06/23 05:16:01;;;;;;;14.80;4.27;;;18.50;99.90;;;;;;4992016;28;20478;-74
2022/06/23 05:18:31;;;;;;;6.90;3.70;;;18.60;99.90;;;;;;4989846;28;20462;-75
2022/06/23 05:21:25;;;;;;;6.87;3.53;;;18.60;99.90;;;;;;4989872;28;20550;-74
2022/06/23 05:23:54;;;;;;;6.37;3.70;;;18.60;99.90;;;;;;4988810;28;20450;-75
2022/06/23 05:26:43;;;;;;;6.03;3.47;;;18.80;99.90;;;;;;4990915;28;20421;-75
2022/06/23 05:29:27;;;;;;;7.20;3.33;;;18.90;99.90;;;;;;4990906;28;20451;-75
2022/06/23 05:32:01;;;;;;;4.40;3.17;;;18.90;99.90;;;;;;4990644;28;20420;-75
2022/06/23 05:34:30;;;;;;;4.47;2.63;;;19.10;99.90;;;;;;4989888;28;20451;-76
2022/06/23 05:37:22;;;;;;;7.93;3.60;;;19.30;99.90;;;;;;5005687;28;20514;-75
2022/06/23 05:40:08;;;;;;;5.00;3.20;;;19.40;99.90;;;;;;4991154;28;20417;-76
2022/06/23 05:42:40;;;;;;;9.23;3.57;;;19.40;99.90;;;;;;4991370;28;20945;-76
2022/06/23 05:45:13;;;;;;;9.93;2.80;;;19.50;99.90;;;;;;4991084;28;20437;-75
2022/06/23 05:47:39;;;;;;;8.37;3.60;;;19.60;99.90;;;;;;5006016;28;20426;-75
2022/06/23 05:50:12;;;;;;;6.50;2.90;;;19.70;99.90;;;;;;4990467;28;20432;-76
2022/06/23 05:52:46;;;;;;;5.07;2.90;;;19.70;99.90;;;;;;4990925;28;20922;-76
2022/06/23 05:55:28;;;;;;;8.93;3.10;;;19.70;99.90;;;;;;4990793;28;20471;-76
2022/06/23 05:57:58;;;;;;;7.83;2.80;;;19.90;99.90;;;;;;4990807;28;20421;-75
2022/06/23 06:00:33;;;;;;;4.70;3.00;;;20.10;99.90;;;;;;4989243;28;20440;-75
2022/06/23 06:03:25;;;;;;;6.80;2.57;;;20.10;99.90;;;;;;4990894;28;20419;-75
2022/06/23 06:05:54;;;;;;;6.90;3.00;;;20.40;99.90;;;;;;4990326;28;20532;-75
2022/06/23 06:08:28;;;;;;;5.30;2.60;;;20.60;99.90;;;;;;4991971;28;20427;-75
2022/06/23 06:10:55;;;;;;;7.27;2.93;;;20.60;99.90;;;;;;5005780;28;20433;-75
2022/06/23 06:13:31;;;;;;;5.67;3.10;;;20.80;99.90;;;;;;4991163;28;20538;-75
2022/06/23 06:15:58;;;;;;;8.47;2.90;;;20.80;99.90;;;;;;4991181;28;20468;-75
2022/06/23 06:18:39;;;;;;;6.53;2.70;;;20.80;99.90;;;;;;4990997;28;20428;-75
2022/06/23 06:21:07;;;;;;;10.30;2.80;;;21.00;99.90;;;;;;4991787;28;20906;-75
2022/06/23 06:23:39;;;;;;;7.50;2.77;;;21.10;99.90;;;;;;4988753;28;20449;-75
2022/06/23 06:26:05;;;;;;;4.80;2.47;;;21.30;99.90;;;;;;4990316;28;20445;-75
2022/06/23 06:28:33;;;;;;;6.77;2.83;;;21.20;99.90;;;;;;4989972;28;20436;-75
2022/06/23 06:31:23;;;;;;;7.47;3.13;;;21.30;99.90;;;;;;4989636;28;20942;-75
2022/06/23 06:34:09;;;;;;;8.70;2.67;;;21.50;99.90;;;;;;4989410;28;20482;-76
2022/06/23 06:36:40;;;;;;;8.40;2.30;;;21.70;99.90;;;;;;4988983;28;20480;-75
2022/06/23 06:39:10;;;;;;;4.27;2.47;;;21.80;99.90;;;;;;4989588;28;20428;-75
2022/06/23 06:41:37;;;;;;;10.33;2.37;;;22.00;99.90;;;;;;5004031;28;20890;-75
2022/06/23 06:44:03;;;;;;;4.77;2.80;;;22.10;99.90;;;;;;4987640;28;20471;-75
2022/06/23 06:46:30;;;;;;;2.77;2.33;;;22.10;99.90;;;;;;4988707;28;20486;-76
2022/06/23 06:48:56;;;;;;;7.10;2.70;;;22.20;99.90;;;;;;4989429;28;20448;-76
2022/06/23 06:51:25;;;;;;;6.37;2.37;;;22.50;99.90;;;;;;4987771;28;20555;-76
2022/06/23 06:54:21;;;;;;;10.70;2.83;;;22.50;99.90;;;;;;5003855;28;20452;-76
2022/06/23 06:56:56;;;;;;;5.20;2.50;;;22.70;99.90;;;;;;4983863;28;20430;-76
2022/06/23 06:59:27;;;;;;;9.00;3.47;;;23.00;99.90;;;;;;4989404;28;20410;-76
2022/06/23 07:02:06;;;;;;;6.80;2.37;;;23.00;99.90;;;;;;4989715;28;20823;-76
2022/06/23 07:04:38;;;;;;;5.90;3.13;;;23.20;99.90;;;;;;4989819;28;20505;-76
2022/06/23 07:07:08;;;;;;;8.63;3.20;;;23.20;99.90;;;;;;4989757;28;20409;-76
2022/06/23 07:09:43;;;;;;;6.87;2.60;;;23.30;99.90;;;;;;4988381;28;20421;-76
2022/06/23 07:12:33;;;;;;;6.73;2.70;;;23.20;99.90;;;;;;4989856;28;20433;-75
2022/06/23 07:15:05;;;;;;;6.17;3.03;;;23.20;99.90;;;;;;4989557;28;20581;-76
2022/06/23 07:17:38;;;;;;;6.07;2.70;;;23.10;99.90;;;;;;4989847;28;20409;-76
2022/06/23 07:20:28;;;;;;;4.77;2.50;;;23.40;99.90;;;;;;4989807;28;20748;-75
2022/06/23 07:23:03;;;;;;;6.13;3.10;;;23.50;99.90;;;;;;4988033;28;20533;-76
2022/06/23 07:25:39;;;;;;;4.80;3.07;;;23.10;99.90;;;;;;4989210;28;20422;-76
2022/06/23 07:28:15;;;;;;;9.23;3.43;;;23.30;99.90;;;;;;4989820;28;20492;-76
2022/06/23 07:30:49;;;;;;;6.43;3.00;;;23.40;99.90;;;;;;4989442;28;20543;-76
2022/06/23 07:33:50;;;;;;;3.67;2.27;;;23.60;99.90;;;;;;5004600;28;21049;-76
2022/06/23 07:36:23;;;;;;;6.20;2.63;;;23.80;99.90;;;;;;4975885;28;20601;-76
2022/06/23 07:38:53;;;;;;;4.63;2.60;;;23.90;99.90;;;;;;4988819;28;20422;-76
2022/06/23 07:41:38;;;;;;;6.30;3.13;;;23.90;99.90;;;;;;4989078;28;20424;-76
2022/06/23 07:44:08;;;;;;;9.60;2.90;;;23.80;99.90;;;;;;4988592;28;20492;-76
2022/06/23 07:46:36;;;;;;;14.63;3.03;;;23.90;99.90;;;;;;4988909;28;20417;-76
2022/06/23 07:49:03;;;;;;;9.20;3.80;;;24.00;99.90;;;;;;4987472;28;20445;-76
2022/06/23 07:51:29;;;;;;;12.40;2.53;;;24.10;99.90;;;;;;4987327;28;20423;-76
2022/06/23 07:53:56;;;;;;;8.30;3.10;;;24.30;99.90;;;;;;4987129;28;20982;-76
2022/06/23 07:56:28;;;;;;;11.40;2.43;;;24.50;99.90;;;;;;4988923;28;20221;-76
2022/06/23 07:59:00;;;;;;;5.97;2.10;;;24.50;99.90;;;;;;4989559;28;20509;-76
2022/06/23 08:01:31;;;;;;;5.43;2.90;;;24.50;99.90;;;;;;4992863;28;20451;-76
2022/06/23 08:04:05;;;;;;;9.43;2.80;;;24.00;99.90;;;;;;4992928;28;20539;-76
2022/06/23 08:06:33;;;;;;;8.03;2.50;;;24.00;99.90;;;;;;4992990;28;20925;-77
2022/06/23 08:09:03;;;;;;;7.13;2.23;;;24.10;99.90;;;;;;5007959;28;20434;-76
2022/06/23 08:14:30;;;;;;;6.97;3.07;;;24.30;99.90;;;;;;4993141;28;20485;-76
2022/06/23 08:16:56;;;;;;;12.13;2.43;;;24.50;99.90;;;;;;4993242;28;20470;-76
2022/06/23 08:19:37;;;;;;;3.90;2.20;;;24.70;99.90;;;;;;4992833;28;20451;-76
2022/06/23 08:22:11;;;;;;;9.10;3.10;;;24.80;99.90;;;;;;4992128;28;20451;-77
2022/06/23 08:24:38;;;;;;;5.90;2.40;;;24.90;99.90;;;;;;4993967;28;20427;-76
2022/06/23 08:27:09;;;;;;;10.77;2.83;;;24.90;99.90;;;;;;4994025;28;20424;-76
2022/06/23 08:29:49;;;;;;;6.23;2.70;;;24.80;99.90;;;;;;5008630;28;20777;-76
2022/06/23 08:32:16;;;;;;;11.23;2.60;;;24.70;99.90;;;;;;4993005;28;20417;-76
2022/06/23 08:34:55;;;;;;;9.13;2.87;;;24.90;99.90;;;;;;4993202;28;20484;-76
2022/06/23 08:37:24;;;;;;;4.43;2.60;;;25.10;99.90;;;;;;4993803;28;20449;-76
2022/06/23 08:39:53;;;;;;;11.57;3.70;;;25.10;99.90;;;;;;4993590;28;20420;-77
2022/06/23 08:43:02;;;;;;;7.10;2.73;;;25.10;99.90;;;;;;4991903;28;20454;-76
2022/06/23 08:45:34;;;;;;;8.13;2.70;;;25.00;99.90;;;;;;4965425;28;20446;-77
2022/06/23 08:48:35;;;;;;;10.57;3.23;;;25.50;99.90;;;;;;4992126;28;20432;-77
2022/06/23 08:51:09;;;;;;;9.90;3.67;;;25.90;99.90;;;;;;4991479;28;20808;-77
2022/06/23 08:53:50;;;;;;;10.77;3.17;;;26.10;99.90;;;;;;4992851;28;20450;-77
2022/06/23 08:56:32;;;;;;;7.80;2.73;;;26.50;99.90;;;;;;5007075;28;20459;-77
2022/06/23 08:59:12;;;;;;;9.67;2.70;;;26.70;99.90;;;;;;4991936;28;20474;-77
2022/06/23 09:01:55;;;;;;;5.80;2.30;;;26.80;99.90;;;;;;4991809;28;20422;-77
2022/06/23 09:04:27;;;;;;;12.80;4.10;;;26.90;99.90;;;;;;4991587;28;21176;-77
2022/06/23 09:06:59;;;;;;;6.93;2.87;;;27.00;99.90;;;;;;4991704;28;20428;-77
2022/06/23 09:09:47;;;;;;;9.33;3.27;;;27.10;99.90;;;;;;4989571;28;20532;-77
2022/06/23 09:12:21;;;;;;;8.13;2.57;;;27.40;99.90;;;;;;4991412;28;20435;-77
2022/06/23 09:15:12;;;;;;;7.97;3.20;;;27.70;99.90;;;;;;4989791;28;20486;-77
2022/06/23 09:17:56;;;;;;;8.60;2.93;;;27.80;99.90;;;;;;4989695;28;20417;-76
2022/06/23 09:20:40;;;;;;;9.93;3.40;;;28.10;99.90;;;;;;4989794;28;20431;-76
2022/06/23 09:23:30;;;;;;;11.60;2.70;;;28.50;99.90;;;;;;4991108;28;20449;-77
2022/06/23 09:26:25;;;;;;;9.57;3.20;;;28.70;99.90;;;;;;4991220;28;20424;-77
2022/06/23 09:29:23;;;;;;;5.90;2.40;;;28.90;99.90;;;;;;4991154;28;20455;-77
2022/06/23 09:31:56;;;;;;;10.67;3.10;;;29.20;99.90;;;;;;4957610;28;21032;-77
2022/06/23 09:34:24;;;;;;;10.00;3.17;;;29.50;99.90;;;;;;4990835;28;20467;-76
2022/06/23 09:37:12;;;;;;;7.27;3.20;;;29.70;99.90;;;;;;4989642;28;20420;-76
2022/06/23 09:39:37;;;;;;;7.60;3.67;;;29.40;99.90;;;;;;4990923;28;20781;-77
2022/06/23 09:42:06;;;;;;;10.77;3.00;;;29.50;99.90;;;;;;4990729;28;20417;-77
2022/06/23 09:44:47;;;;;;;11.63;3.53;;;29.50;99.90;;;;;;4990632;28;20285;-77
2022/06/23 09:47:50;;;;;;;10.33;3.20;;;29.60;99.90;;;;;;4990465;28;20417;-77
2022/06/23 09:50:34;;;;;;;6.27;3.27;;;29.80;99.90;;;;;;4990488;28;20417;-76
2022/06/23 09:53:11;;;;;;;6.60;2.77;;;29.90;99.90;;;;;;4990114;28;20432;-76
2022/06/23 09:56:09;;;;;;;8.27;3.40;;;29.90;99.90;;;;;;4988515;28;20476;-76
2022/06/23 09:59:02;;;;;;;11.53;3.27;;;30.30;99.90;;;;;;4966815;28;20429;-76
2022/06/23 10:01:30;;;;;;;5.67;2.97;;;30.60;99.80;;;;;;4990332;28;20420;-76
2022/06/23 10:04:20;;;;;;;9.43;3.70;;;30.50;99.90;;;;;;4990415;28;20442;-76
2022/06/23 10:07:12;;;;;;;8.57;3.63;;;30.50;99.90;;;;;;4990900;28;20552;-76
2022/06/23 10:09:59;;;;;;;11.80;2.73;;;30.70;99.90;;;;;;5005354;28;20413;-75
2022/06/23 10:12:53;;;;;;;13.90;3.40;;;30.60;97.90;;;;;;4990628;28;20405;-76
2022/06/23 10:15:53;;;;;;;8.27;3.50;;;30.20;99.10;;;;;;4990531;28;20555;-75
2022/06/23 10:18:37;;;;;;;16.07;3.50;;;30.10;98.60;;;;;;4990652;28;20413;-76
2022/06/23 10:21:29;;;;;;;11.13;3.70;;;30.50;98.20;;;;;;4990491;28;20539;-76
2022/06/23 10:24:04;;;;;;;12.37;3.10;;;31.10;97.80;;;;;;4990905;28;20433;-76
2022/06/23 10:26:36;;;;;;;9.97;3.20;;;31.10;97.30;;;;;;4991160;28;20408;-76
2022/06/23 10:29:19;;;;;;;6.67;2.83;;;31.30;96.60;;;;;;4990241;28;20421;-76
2022/06/23 10:32:09;;;;;;;11.80;3.30;;;31.00;96.00;;;;;;4992131;28;20468;-76
2022/06/23 10:34:48;;;;;;;12.33;3.20;;;30.80;95.10;;;;;;4990866;28;21036;-76
2022/06/23 10:37:43;;;;;;;14.30;3.83;;;31.00;98.40;;;;;;4989899;28;20504;-76
2022/06/23 10:40:50;;;;;;;8.63;3.77;;;30.50;97.10;;;;;;4989323;28;20872;-76
2022/06/23 10:43:39;;;;;;;11.47;3.47;;;30.80;98.50;;;;;;4972226;28;20421;-76
2022/06/23 10:46:35;;;;;;;13.20;3.40;;;31.10;99.00;;;;;;4981132;28;20891;-76
2022/06/23 10:49:09;;;;;;;4.20;3.00;;;31.10;98.00;;;;;;4988878;28;20474;-76
2022/06/23 10:51:41;;;;;;;7.37;3.90;;;31.70;97.00;;;;;;4988841;28;20428;-76
2022/06/23 10:54:37;;;;;;;7.47;3.43;;;31.80;95.50;;;;;;4988815;28;20532;-76
2022/06/23 10:57:20;;;;;;;16.77;4.30;;;32.10;95.80;;;;;;4988803;28;20906;-76
2022/06/23 11:00:10;;;;;;;11.93;3.30;;;32.10;94.00;;;;;;4988995;28;20409;-76
2022/06/23 11:03:00;;;;;;;8.80;3.30;;;32.30;93.80;;;;;;4988752;28;20413;-76
2022/06/23 11:05:29;;;;;;;5.83;3.50;;;32.40;94.10;;;;;;4988525;28;20451;-76
2022/06/23 11:08:04;;;;;;;7.87;2.90;;;32.70;93.90;;;;;;4988712;28;20420;-76
2022/06/23 11:11:05;;;;;;;7.80;3.60;;;32.70;94.40;;;;;;4988500;28;20814;-76
2022/06/23 11:13:42;;;;;;;5.53;2.97;;;32.80;94.40;;;;;;4927830;29;20574;-76
2022/06/23 11:16:31;;;;;;;9.80;3.67;;;32.80;93.40;;;;;;4976769;28;20515;-76
2022/06/23 11:19:08;;;;;;;11.20;3.80;;;32.80;93.00;;;;;;4988428;28;20417;-76
2022/06/23 11:22:22;;;;;;;11.30;3.50;;;32.90;92.90;;;;;;4988714;28;20460;-76
2022/06/23 11:25:16;;;;;;;13.70;3.23;;;33.20;90.90;;;;;;5003430;28;20475;-76
2022/06/23 11:28:04;;;;;;;10.37;2.90;;;33.20;90.80;;;;;;4988396;28;20965;-76
2022/06/23 11:30:48;;;;;;;6.50;3.00;;;32.40;89.10;;;;;;4986804;28;20425;-76
2022/06/23 11:33:39;;;;;;;9.37;3.10;;;31.90;92.60;;;;;;4988226;28;20416;-76
2022/06/23 11:36:19;;;;;;;12.43;3.87;;;32.00;92.20;;;;;;4988117;28;20559;-76
2022/06/23 11:38:45;;;;;;;9.40;2.30;;;32.40;92.90;;;;;;4988443;28;20424;-76
2022/06/23 11:41:40;;;;;;;12.63;2.67;;;32.30;90.00;;;;;;4988470;28;20428;-76
2022/06/23 11:44:25;;;;;;;9.10;3.07;;;32.70;79.80;;;;;;4986856;28;20292;-76
2022/06/23 11:47:04;;;;;;;7.40;2.47;;;32.90;77.80;;;;;;5003513;28;20523;-76
2022/06/23 11:49:57;;;;;;;4.73;2.23;;;32.90;80.80;;;;;;4988685;28;20421;-76
2022/06/23 11:52:55;;;;;;;8.50;2.60;;;33.10;78.90;;;;;;4988517;28;20413;-76
2022/06/23 11:55:24;;;;;;;6.30;1.90;;;33.00;81.00;;;;;;4976890;28;20483;-76
2022/06/23 11:57:55;;;;;;;9.00;2.60;;;32.80;74.00;;;;;;4987287;28;20487;-76
2022/06/23 12:00:38;;;;;;;10.50;2.50;;;32.80;75.10;;;;;;4987343;28;20432;-76
2022/06/23 12:03:21;;;;;;;7.60;2.50;;;32.70;72.80;;;;;;4988899;28;20949;-76
2022/06/23 12:05:49;;;;;;;8.73;2.50;;;33.00;72.50;;;;;;4988669;28;20416;-76
2022/06/23 12:08:51;;;;;;;9.90;2.10;;;33.30;74.30;;;;;;4988715;28;20441;-76
2022/06/23 12:11:17;;;;;;;6.73;2.37;;;33.40;77.10;;;;;;4988612;28;20416;-76
2022/06/23 12:13:43;;;;;;;7.80;3.03;;;33.50;72.60;;;;;;4988675;28;20480;-76
2022/06/23 12:16:09;;;;;;;8.77;2.73;;;33.50;73.60;;;;;;4987143;28;20475;-76
2022/06/23 12:18:39;;;;;;;8.13;2.60;;;33.40;69.20;;;;;;4987436;28;20236;-76
2022/06/23 12:21:40;;;;;;;6.83;2.50;;;33.80;76.80;;;;;;4988749;28;20257;-76
2022/06/23 12:24:24;;;;;;;10.97;2.40;;;33.10;80.80;;;;;;4964307;28;20451;-76
2022/06/23 12:27:25;;;;;;;11.03;2.70;;;32.60;82.10;;;;;;4989758;28;20416;-76
2022/06/23 12:30:07;;;;;;;3.90;2.10;;;32.90;83.40;;;;;;4988117;28;20453;-76
2022/06/23 12:32:40;;;;;;;7.87;2.90;;;32.70;82.20;;;;;;4987950;28;20433;-76
2022/06/23 12:35:29;;;;;;;4.77;2.03;;;32.00;84.10;;;;;;4987743;28;20514;-76
2022/06/23 12:38:06;;;;;;;5.53;1.83;;;31.40;78.20;;;;;;4987987;28;20412;-76
2022/06/23 12:40:46;;;;;;;10.70;2.80;;;32.00;86.40;;;;;;4987861;28;20578;-76
2022/06/23 12:43:19;;;;;;;8.43;2.57;;;32.30;79.30;;;;;;4988101;28;20955;-76
2022/06/23 12:46:02;;;;;;;8.33;2.93;;;32.70;76.40;;;;;;4989974;28;20487;-76
2022/06/23 12:48:49;;;;;;;4.57;2.10;;;32.20;75.60;;;;;;4991832;28;20425;-76
2022/06/23 12:51:49;;;;;;;10.20;2.70;;;32.10;76.60;;;;;;4991617;28;20428;-76
2022/06/23 12:54:24;;;;;;;7.57;2.40;;;31.90;74.10;;;;;;4978377;28;20877;-76
2022/06/23 12:56:58;;;;;;;7.33;2.70;;;31.70;76.00;;;;;;4991247;28;20464;-76
2022/06/23 12:59:35;;;;;;;10.20;2.50;;;31.70;77.80;;;;;;4991194;28;20408;-76
2022/06/23 13:02:00;;;;;;;9.37;2.40;;;31.60;72.50;;;;;;4991285;28;20455;-76
2022/06/23 13:04:32;;;;;;;13.53;2.70;;;31.70;76.80;;;;;;4991145;28;20444;-76
2022/06/23 13:07:05;;;;;;;8.53;2.67;;;31.70;76.70;;;;;;4990893;28;20555;-76
2022/06/23 13:09:40;;;;;;;6.50;2.23;;;32.20;77.00;;;;;;4989279;28;20432;-76
2022/06/23 13:12:38;;;;;;;6.37;2.23;;;32.70;78.10;;;;;;4990770;28;20981;-76
2022/06/23 13:15:09;;;;;;;6.70;2.37;;;33.20;76.60;;;;;;4967166;28;20496;-76
2022/06/23 13:17:57;;;;;;;6.13;2.23;;;33.50;73.80;;;;;;4990457;28;21123;-76
2022/06/23 13:20:35;;;;;;;11.97;2.77;;;33.60;72.90;;;;;;4990534;28;20447;-76
2022/06/23 13:23:07;;;;;;;6.40;2.70;;;33.60;71.90;;;;;;4990530;28;20469;-76
2022/06/23 13:25:36;;;;;;;8.73;2.87;;;33.60;68.30;;;;;;4990222;28;20452;-76
2022/06/23 13:28:05;;;;;;;11.63;2.53;;;33.70;67.20;;;;;;4990373;28;20423;-76
2022/06/23 13:30:40;;;;;;;4.53;2.30;;;33.50;67.40;;;;;;4989096;28;20512;-76
2022/06/23 13:33:19;;;;;;;9.60;2.40;;;33.80;66.80;;;;;;4990368;28;20458;-76
2022/06/23 13:35:53;;;;;;;7.53;2.30;;;33.20;65.30;;;;;;4990473;28;20514;-76
2022/06/23 13:38:49;;;;;;;5.23;2.20;;;33.50;65.30;;;;;;4990876;28;20417;-76
2022/06/23 13:41:25;;;;;;;7.37;2.60;;;33.20;63.80;;;;;;4982684;28;20429;-76
2022/06/23 13:44:03;;;;;;;5.67;2.20;;;33.60;70.50;;;;;;5004920;28;20483;-76
2022/06/23 13:46:58;;;;;;;5.17;2.43;;;33.70;70.40;;;;;;4990143;28;20482;-77
2022/06/23 13:49:47;;;;;;;10.63;2.40;;;33.80;69.90;;;;;;4990223;28;20429;-76